Time;durP1;ratioP1;P1;durP2;ratioP2;P2;SDS_P1;SDS_P2;PMS_P1;PMS_P2;Temp;Humidity;BMP_temperature;BMP_pressure;BME280_temperature;BME280_humidity;BME280_pressure;Samples;Min_cycle;Max_cycle;Signal;HPM_P1;HPM_P2
2023/07/01 00:01:23;;;;;;;20.35;4.82;;;;;;;;;;6209527;23;20074;-59
2023/07/01 00:04:24;;;;;;;23.33;4.80;;;;;;;;;;6207615;23;20025;-59
2023/07/01 00:07:17;;;;;;;22.05;5.03;;;;;;;;;;6208730;23;20082;-60
2023/07/01 00:10:11;;;;;;;25.67;5.63;;;;;;;;;;6209303;23;20021;-60
2023/07/01 00:12:59;;;;;;;22.20;5.00;;;;;;;;;;6208436;23;20020;-59
2023/07/01 00:15:52;;;;;;;21.88;5.90;;;;;;;;;;6209379;23;20039;-59
2023/07/01 00:18:47;;;;;;;25.13;5.75;;;;;;;;;;6209534;23;20358;-60
2023/07/01 00:21:35;;;;;;;14.90;5.35;;;;;;;;;;6209334;23;20020;-60
2023/07/01 00:24:28;;;;;;;20.00;4.43;;;;;;;;;;6206148;23;20543;-59
2023/07/01 00:27:22;;;;;;;26.42;5.80;;;;;;;;;;6206223;23;20094;-59
2023/07/01 00:30:16;;;;;;;23.10;5.38;;;;;;;;;;6207170;23;20044;-59
2023/07/01 00:33:11;;;;;;;16.27;5.03;;;;;;;;;;6208420;23;20099;-59
2023/07/01 00:35:58;;;;;;;23.60;5.63;;;;;;;;;;6208711;23;20016;-60
2023/07/01 00:38:52;;;;;;;20.65;5.18;;;;;;;;;;6206474;23;20032;-60
2023/07/01 00:41:39;;;;;;;23.73;5.60;;;;;;;;;;6208487;23;20027;-60
2023/07/01 00:44:34;;;;;;;25.10;6.10;;;;;;;;;;6208382;23;20024;-59
2023/07/01 00:47:21;;;;;;;17.25;5.03;;;;;;;;;;6209445;23;20021;-60
2023/07/01 00:50:15;;;;;;;17.58;4.97;;;;;;;;;;6208417;23;20485;-59
2023/07/01 00:53:02;;;;;;;24.17;5.63;;;;;;;;;;6208365;23;20032;-59
2023/07/01 00:55:56;;;;;;;16.63;4.78;;;;;;;;;;6207861;23;20028;-59
2023/07/01 00:58:43;;;;;;;26.27;5.95;;;;;;;;;;6207030;23;20024;-60
2023/07/01 01:01:39;;;;;;;24.13;5.80;;;;;;;;;;6209020;23;20020;-60
2023/07/01 01:04:37;;;;;;;19.42;4.88;;;;;;;;;;6208050;23;20021;-60
2023/07/01 01:07:36;;;;;;;20.02;5.10;;;;;;;;;;6208793;23;20020;-60
2023/07/01 01:10:26;;;;;;;23.75;5.22;;;;;;;;;;6209201;23;20024;-60
2023/07/01 01:13:21;;;;;;;19.50;5.32;;;;;;;;;;6208259;23;20547;-60
2023/07/01 01:16:08;;;;;;;22.88;5.70;;;;;;;;;;6209248;23;20024;-60
2023/07/01 01:19:05;;;;;;;25.95;5.45;;;;;;;;;;6207189;23;20024;-60
2023/07/01 01:22:08;;;;;;;18.05;5.85;;;;;;;;;;6209162;23;20056;-60
2023/07/01 01:24:43;;;;;;;18.85;5.07;;;;;;;;;;6208320;23;20028;-59
2023/07/01 01:27:12;;;;;;;17.65;5.30;;;;;;;;;;6208390;23;20520;-60
2023/07/01 01:29:46;;;;;;;15.52;5.45;;;;;;;;;;6207646;23;20028;-60
2023/07/01 01:32:13;;;;;;;17.25;5.30;;;;;;;;;;6207004;23;20029;-60
2023/07/01 01:34:47;;;;;;;16.55;5.65;;;;;;;;;;6207411;23;20020;-60
2023/07/01 01:37:19;;;;;;;19.05;5.30;;;;;;;;;;6207130;23;20016;-59
2023/07/01 01:40:16;;;;;;;16.80;5.43;;;;;;;;;;6208273;23;20032;-59
2023/07/01 01:43:06;;;;;;;21.05;5.88;;;;;;;;;;6208291;23;20020;-60
2023/07/01 01:46:00;;;;;;;22.23;6.03;;;;;;;;;;6208032;23;20031;-60
2023/07/01 01:48:56;;;;;;;24.08;5.63;;;;;;;;;;6207338;23;20056;-59
2023/07/01 01:51:51;;;;;;;28.60;7.38;;;;;;;;;;6208430;23;20016;-60
2023/07/01 01:54:45;;;;;;;20.83;6.38;;;;;;;;;;6208752;23;20032;-60
2023/07/01 01:57:33;;;;;;;18.67;5.47;;;;;;;;;;6206391;23;20025;-59
2023/07/01 02:00:27;;;;;;;19.58;6.22;;;;;;;;;;6208013;23;20025;-59
2023/07/01 02:03:21;;;;;;;21.58;5.70;;;;;;;;;;6207655;23;20488;-60
2023/07/01 02:06:15;;;;;;;21.10;6.15;;;;;;;;;;6208948;23;20024;-59
2023/07/01 02:09:08;;;;;;;21.35;5.47;;;;;;;;;;6205262;23;20021;-59
2023/07/01 02:11:55;;;;;;;20.95;5.82;;;;;;;;;;6208128;23;20024;-60
2023/07/01 02:14:49;;;;;;;18.42;5.82;;;;;;;;;;6208379;23;20029;-59
2023/07/01 02:17:36;;;;;;;18.95;5.80;;;;;;;;;;6207900;23;20020;-60
2023/07/01 02:20:30;;;;;;;18.17;5.15;;;;;;;;;;6209307;23;20029;-60
2023/07/01 02:23:17;;;;;;;17.98;6.25;;;;;;;;;;6207627;23;20398;-60
2023/07/01 02:26:11;;;;;;;19.05;6.15;;;;;;;;;;6207831;23;20021;-60
2023/07/01 02:28:58;;;;;;;20.00;6.03;;;;;;;;;;6206865;23;20027;-59
2023/07/01 02:31:52;;;;;;;22.88;6.80;;;;;;;;;;6206789;23;20024;-60
2023/07/01 02:34:39;;;;;;;17.98;6.40;;;;;;;;;;6208633;23;20331;-59
2023/07/01 02:37:33;;;;;;;29.40;7.65;;;;;;;;;;6207874;23;20083;-59
2023/07/01 02:40:20;;;;;;;23.05;6.70;;;;;;;;;;6207074;23;20091;-60
2023/07/01 02:43:15;;;;;;;23.42;7.50;;;;;;;;;;6207860;23;20430;-58
2023/07/01 02:46:02;;;;;;;19.23;6.82;;;;;;;;;;6207381;23;20056;-59
2023/07/01 02:48:56;;;;;;;27.10;7.22;;;;;;;;;;6207427;23;20033;-59
2023/07/01 02:51:43;;;;;;;34.97;6.90;;;;;;;;;;6208518;23;20016;-60
2023/07/01 02:54:39;;;;;;;20.30;6.78;;;;;;;;;;6207724;23;20025;-60
2023/07/01 02:57:25;;;;;;;20.80;7.35;;;;;;;;;;6206422;23;20078;-59
2023/07/01 03:00:18;;;;;;;20.63;7.30;;;;;;;;;;6208334;23;20094;-60
2023/07/01 03:03:08;;;;;;;31.08;7.15;;;;;;;;;;6206772;23;20024;-59
2023/07/01 03:06:12;;;;;;;26.17;7.10;;;;;;;;;;6206846;23;20107;-59
2023/07/01 03:08:59;;;;;;;27.88;7.13;;;;;;;;;;6208100;23;20033;-59
2023/07/01 03:11:53;;;;;;;18.38;7.10;;;;;;;;;;6208499;23;20323;-58
2023/07/01 03:14:40;;;;;;;25.65;7.35;;;;;;;;;;6208013;23;20037;-60
2023/07/01 03:17:34;;;;;;;20.98;7.43;;;;;;;;;;6210073;23;20024;-59
2023/07/01 03:20:24;;;;;;;25.55;7.93;;;;;;;;;;6209803;23;20070;-58
2023/07/01 03:23:18;;;;;;;30.30;7.20;;;;;;;;;;6209917;23;20078;-59
2023/07/01 03:26:05;;;;;;;19.75;7.28;;;;;;;;;;6209230;23;20020;-59
2023/07/01 03:28:59;;;;;;;28.80;6.97;;;;;;;;;;6208889;23;20071;-60
2023/07/01 03:31:48;;;;;;;25.48;6.25;;;;;;;;;;6208306;23;20107;-59
2023/07/01 03:34:40;;;;;;;26.58;7.93;;;;;;;;;;6209863;23;20405;-59
2023/07/01 03:37:27;;;;;;;27.20;7.47;;;;;;;;;;6209685;23;20497;-60
2023/07/01 03:40:21;;;;;;;26.13;7.75;;;;;;;;;;6209348;23;20405;-60
2023/07/01 03:43:15;;;;;;;26.02;7.32;;;;;;;;;;6205815;23;20024;-59
2023/07/01 03:46:09;;;;;;;28.23;6.88;;;;;;;;;;6210293;23;20024;-60
2023/07/01 03:49:03;;;;;;;23.42;7.10;;;;;;;;;;6204966;23;20020;-58
2023/07/01 03:51:57;;;;;;;25.30;6.97;;;;;;;;;;6209888;23;20350;-59
2023/07/01 03:54:44;;;;;;;22.50;6.78;;;;;;;;;;6208926;23;20071;-59
2023/07/01 03:57:38;;;;;;;21.38;5.65;;;;;;;;;;6209634;23;20024;-59
2023/07/01 04:00:26;;;;;;;19.52;5.97;;;;;;;;;;6209993;23;20076;-59
2023/07/01 04:03:23;;;;;;;24.02;7.32;;;;;;;;;;6207431;23;20036;-57
2023/07/01 04:06:13;;;;;;;25.10;6.80;;;;;;;;;;6206546;23;20477;-59
2023/07/01 04:09:12;;;;;;;17.23;6.43;;;;;;;;;;6208981;23;20021;-60
2023/07/01 04:11:53;;;;;;;23.23;6.78;;;;;;;;;;6208468;23;20028;-59
2023/07/01 04:14:47;;;;;;;15.63;5.63;;;;;;;;;;6208316;23;20024;-59
2023/07/01 04:17:42;;;;;;;16.48;5.93;;;;;;;;;;6208460;23;20020;-60
2023/07/01 04:20:29;;;;;;;16.65;6.30;;;;;;;;;;6207778;23;20497;-59
2023/07/01 04:23:23;;;;;;;22.15;5.97;;;;;;;;;;6207326;23;20031;-59
2023/07/01 04:26:10;;;;;;;17.98;5.20;;;;;;;;;;6209481;23;20031;-58
2023/07/01 04:29:04;;;;;;;16.08;5.70;;;;;;;;;;6209211;23;20024;-60
2023/07/01 04:31:51;;;;;;;22.35;6.18;;;;;;;;;;6208286;23;20035;-59
2023/07/01 04:34:45;;;;;;;21.33;6.20;;;;;;;;;;6209437;23;20060;-59
2023/07/01 04:37:32;;;;;;;17.98;5.60;;;;;;;;;;6208464;23;20024;-57
2023/07/01 04:40:26;;;;;;;20.42;5.63;;;;;;;;;;6208119;23;20032;-60
2023/07/01 04:43:17;;;;;;;19.85;5.15;;;;;;;;;;6209280;23;20025;-59
2023/07/01 04:46:11;;;;;;;18.55;4.93;;;;;;;;;;6208975;23;20324;-58
2023/07/01 04:49:01;;;;;;;19.60;5.00;;;;;;;;;;6207147;23;20028;-59
2023/07/01 04:51:56;;;;;;;17.65;4.82;;;;;;;;;;6207991;23;20048;-59
2023/07/01 04:54:43;;;;;;;16.45;4.78;;;;;;;;;;6207851;23;20079;-59
2023/07/01 04:57:37;;;;;;;16.45;4.80;;;;;;;;;;6209265;23;20021;-59
2023/07/01 05:00:24;;;;;;;14.75;4.55;;;;;;;;;;6208860;23;20021;-59
2023/07/01 05:03:18;;;;;;;12.18;4.22;;;;;;;;;;6208793;23;20496;-59
2023/07/01 05:06:19;;;;;;;15.65;4.63;;;;;;;;;;6207264;23;20025;-58
2023/07/01 05:09:06;;;;;;;21.15;5.35;;;;;;;;;;6207312;23;20112;-59
2023/07/01 05:12:00;;;;;;;16.45;4.55;;;;;;;;;;6209493;23;20024;-59
2023/07/01 05:14:47;;;;;;;16.60;4.47;;;;;;;;;;6208261;23;20548;-58
2023/07/01 05:17:42;;;;;;;17.35;3.90;;;;;;;;;;6207658;23;20099;-59
2023/07/01 05:20:29;;;;;;;16.52;3.90;;;;;;;;;;6209808;23;20058;-59
2023/07/01 05:23:23;;;;;;;15.30;3.72;;;;;;;;;;6208447;23;20067;-60
2023/07/01 05:26:10;;;;;;;16.45;4.13;;;;;;;;;;6206648;23;20020;-59
2023/07/01 05:29:04;;;;;;;15.27;3.80;;;;;;;;;;6205619;23;20083;-58
2023/07/01 05:31:52;;;;;;;16.27;3.10;;;;;;;;;;6206177;23;20024;-58
2023/07/01 05:34:45;;;;;;;8.55;3.20;;;;;;;;;;6207637;23;20332;-60
2023/07/01 05:37:32;;;;;;;15.65;3.13;;;;;;;;;;6207535;23;20207;-59
2023/07/01 05:40:26;;;;;;;12.13;3.20;;;;;;;;;;6209623;23;20419;-59
2023/07/01 05:43:20;;;;;;;16.17;3.33;;;;;;;;;;6208889;23;20492;-59
2023/07/01 05:46:07;;;;;;;34.95;4.00;;;;;;;;;;6207388;23;20027;-58
2023/07/01 05:49:01;;;;;;;12.50;3.38;;;;;;;;;;6207375;23;20028;-59
2023/07/01 05:51:48;;;;;;;8.45;3.22;;;;;;;;;;6201703;23;20354;-58
2023/07/01 05:54:22;;;;;;;15.82;3.58;;;;;;;;;;6206679;23;20028;-58
2023/07/01 05:56:56;;;;;;;14.80;3.20;;;;;;;;;;6207688;23;20078;-59
2023/07/01 05:59:23;;;;;;;12.55;3.50;;;;;;;;;;6207352;23;20070;-59
2023/07/01 06:02:17;;;;;;;7.88;2.65;;;;;;;;;;6202651;23;20020;-58
2023/07/01 06:05:11;;;;;;;8.43;2.50;;;;;;;;;;6205724;23;20492;-58
2023/07/01 06:08:04;;;;;;;;;;;;;;;;;;6206976;23;20482;-58
2023/07/01 06:10:52;;;;;;;12.25;3.03;;;;;;;;;;6206369;23;20402;-59
2023/07/01 06:13:49;;;;;;;14.55;3.22;;;;;;;;;;6205827;23;20020;-58
2023/07/01 06:16:37;;;;;;;9.80;2.88;;;;;;;;;;6204731;23;20024;-59
2023/07/01 06:19:30;;;;;;;9.95;3.15;;;;;;;;;;6206734;23;20035;-59
2023/07/01 06:22:17;;;;;;;14.13;3.13;;;;;;;;;;6207951;23;20028;-59
2023/07/01 06:25:11;;;;;;;14.40;2.95;;;;;;;;;;6205305;23;20020;-58
2023/07/01 06:27:59;;;;;;;10.52;3.10;;;;;;;;;;6207530;23;20021;-58
2023/07/01 06:30:52;;;;;;;13.45;2.88;;;;;;;;;;6204782;23;20100;-57
2023/07/01 06:33:39;;;;;;;8.18;2.28;;;;;;;;;;6207550;23;20237;-58
2023/07/01 06:36:33;;;;;;;7.78;2.97;;;;;;;;;;6208014;23;20021;-58
2023/07/01 06:39:27;;;;;;;11.27;2.55;;;;;;;;;;6206077;23;20024;-59
2023/07/01 06:42:21;;;;;;;6.68;2.30;;;;;;;;;;6207350;23;20075;-58
2023/07/01 06:45:08;;;;;;;10.68;2.60;;;;;;;;;;6202804;23;20051;-57
2023/07/01 06:48:02;;;;;;;10.88;2.53;;;;;;;;;;6206191;23;20036;-57
2023/07/01 06:50:49;;;;;;;7.45;2.50;;;;;;;;;;6205464;23;20024;-57
2023/07/01 06:53:43;;;;;;;12.45;3.03;;;;;;;;;;6204597;23;20071;-58
2023/07/01 06:56:30;;;;;;;10.75;2.85;;;;;;;;;;6207224;23;20391;-56
2023/07/01 06:59:24;;;;;;;21.08;3.17;;;;;;;;;;6207422;23;20024;-58
2023/07/01 07:02:24;;;;;;;8.77;2.53;;;;;;;;;;6207521;23;20082;-58
2023/07/01 07:05:25;;;;;;;17.25;2.85;;;;;;;;;;6207534;23;20024;-58
2023/07/01 07:10:56;;;;;;;12.85;3.35;;;;;;;;;;6202132;23;20028;-59
2023/07/01 07:13:37;;;;;;;9.95;3.35;;;;;;;;;;6218340;22;20547;-60
2023/07/01 07:16:11;;;;;;;9.77;2.78;;;;;;;;;;6231351;23;20024;-60
2023/07/01 07:18:45;;;;;;;11.38;2.60;;;;;;;;;;6237476;23;20028;-60
2023/07/01 07:21:13;;;;;;;12.55;3.10;;;;;;;;;;6230515;23;20031;-60
2023/07/01 07:24:06;;;;;;;8.63;2.85;;;;;;;;;;6230060;23;20031;-61
2023/07/01 07:26:55;;;;;;;11.15;2.95;;;;;;;;;;6236687;23;20020;-60
2023/07/01 07:29:48;;;;;;;9.82;2.88;;;;;;;;;;6236387;23;20420;-60
2023/07/01 07:32:35;;;;;;;7.85;2.58;;;;;;;;;;6219161;23;20074;-60
2023/07/01 07:35:29;;;;;;;10.30;3.28;;;;;;;;;;6236622;23;20020;-59
2023/07/01 07:38:16;;;;;;;8.50;3.13;;;;;;;;;;6234840;23;20462;-60
2023/07/01 07:41:11;;;;;;;11.57;2.83;;;;;;;;;;6228293;23;20023;-61
2023/07/01 07:43:58;;;;;;;12.75;3.00;;;;;;;;;;6218246;22;20028;-57
2023/07/01 07:46:38;;;;;;;16.40;3.22;;;;;;;;;;6206511;22;20020;-46
2023/07/01 07:49:09;;;;;;;8.55;2.50;;;;;;;;;;6223886;23;20026;-45
2023/07/01 07:51:43;;;;;;;12.13;2.70;;;;;;;;;;6237162;23;20027;-44
2023/07/01 07:54:30;;;;;;;19.92;2.92;;;;;;;;;;6234380;23;20468;-46
2023/07/01 07:57:24;;;;;;;6.05;2.42;;;;;;;;;;6235680;23;20024;-45
2023/07/01 08:00:11;;;;;;;13.57;2.83;;;;;;;;;;6236776;23;20024;-45
2023/07/01 08:03:05;;;;;;;13.82;2.88;;;;;;;;;;6223603;23;20024;-52
2023/07/01 08:05:52;;;;;;;8.48;2.80;;;;;;;;;;6236661;23;20107;-67
2023/07/01 08:08:46;;;;;;;9.55;2.33;;;;;;;;;;6235222;23;20020;-66
2023/07/01 08:11:40;;;;;;;5.88;2.50;;;;;;;;;;6224410;22;20023;-58
2023/07/01 08:14:14;;;;;;;6.03;2.60;;;;;;;;;;6235556;23;20393;-57
2023/07/01 08:16:48;;;;;;;6.03;2.55;;;;;;;;;;6235319;23;20055;-58
2023/07/01 08:19:15;;;;;;;6.15;2.50;;;;;;;;;;6238429;23;20024;-58
2023/07/01 08:21:43;;;;;;;10.05;2.85;;;;;;;;;;6234335;23;20486;-58
2023/07/01 08:24:17;;;;;;;8.02;3.17;;;;;;;;;;6237490;23;20028;-58
2023/07/01 08:26:44;;;;;;;6.35;2.65;;;;;;;;;;6236949;23;20020;-58
2023/07/01 08:29:19;;;;;;;11.35;3.20;;;;;;;;;;6236227;23;20074;-58
2023/07/01 08:31:46;;;;;;;7.03;2.80;;;;;;;;;;6236438;23;20031;-58
2023/07/01 08:34:14;;;;;;;4.90;2.83;;;;;;;;;;6237390;23;20023;-58
2023/07/01 08:36:47;;;;;;;5.40;2.75;;;;;;;;;;6236865;23;20369;-58
2023/07/01 08:39:14;;;;;;;4.25;2.35;;;;;;;;;;6236137;23;20094;-58
2023/07/01 08:41:52;;;;;;;8.23;2.88;;;;;;;;;;6237098;23;20023;-58
2023/07/01 08:44:19;;;;;;;6.63;2.45;;;;;;;;;;6235299;23;20020;-58
2023/07/01 08:46:52;;;;;;;9.38;2.42;;;;;;;;;;6235272;23;20035;-58
2023/07/01 08:49:28;;;;;;;6.65;2.33;;;;;;;;;;6235608;23;20032;-57
2023/07/01 08:52:22;;;;;;;9.30;2.45;;;;;;;;;;6235783;23;20086;-58
2023/07/01 08:55:11;;;;;;;11.63;2.38;;;;;;;;;;6236151;23;20077;-58
2023/07/01 08:58:03;;;;;;;5.00;2.75;;;;;;;;;;6235092;23;20191;-57
2023/07/01 09:00:50;;;;;;;10.90;2.55;;;;;;;;;;6237535;23;20392;-59
2023/07/01 09:03:47;;;;;;;14.45;2.22;;;;;;;;;;6217467;23;20020;-58
2023/07/01 09:06:34;;;;;;;5.78;2.42;;;;;;;;;;6234931;23;20566;-58
2023/07/01 09:09:27;;;;;;;15.70;3.03;;;;;;;;;;6237653;23;20020;-58
2023/07/01 09:12:21;;;;;;;9.73;2.45;;;;;;;;;;6205689;23;20094;-58
2023/07/01 09:15:16;;;;;;;5.13;2.55;;;;;;;;;;6205282;23;20024;-57
2023/07/01 09:18:18;;;;;;;6.27;2.80;;;;;;;;;;6206033;23;20028;-58
2023/07/01 09:21:19;;;;;;;7.57;2.77;;;;;;;;;;6204617;23;20263;-59
2023/07/01 09:24:08;;;;;;;9.00;3.20;;;;;;;;;;6198207;23;20055;-57
2023/07/01 09:26:42;;;;;;;4.85;2.78;;;;;;;;;;6203225;23;20025;-58
2023/07/01 09:29:16;;;;;;;15.50;3.45;;;;;;;;;;6206395;23;20035;-57
2023/07/01 09:31:52;;;;;;;6.80;3.25;;;;;;;;;;6207354;23;20047;-58
2023/07/01 09:34:21;;;;;;;7.72;3.15;;;;;;;;;;6208597;23;20021;-58
2023/07/01 09:36:48;;;;;;;6.95;2.75;;;;;;;;;;6206186;23;20024;-57
2023/07/01 09:39:32;;;;;;;4.88;2.65;;;;;;;;;;6206608;23;20106;-58
2023/07/01 09:42:04;;;;;;;5.40;3.08;;;;;;;;;;6206173;23;20048;-58
2023/07/01 09:44:38;;;;;;;6.10;2.95;;;;;;;;;;6208099;23;20024;-58
2023/07/01 09:47:06;;;;;;;6.22;3.00;;;;;;;;;;6206524;23;20024;-58
2023/07/01 09:49:45;;;;;;;7.35;3.28;;;;;;;;;;6207378;23;20016;-59
2023/07/01 09:52:30;;;;;;;7.68;2.90;;;;;;;;;;6205930;23;20028;-58
2023/07/01 09:54:58;;;;;;;8.20;3.58;;;;;;;;;;6207375;23;20025;-58
2023/07/01 09:57:35;;;;;;;6.82;2.90;;;;;;;;;;6205521;23;20028;-57
2023/07/01 10:00:03;;;;;;;6.35;3.03;;;;;;;;;;6206516;23;20021;-58
2023/07/01 10:02:37;;;;;;;9.32;2.80;;;;;;;;;;6207646;23;20028;-58
2023/07/01 10:05:06;;;;;;;8.00;3.45;;;;;;;;;;6177536;23;20021;-59
2023/07/01 10:07:33;;;;;;;6.57;2.83;;;;;;;;;;6206719;23;20031;-59
2023/07/01 10:10:40;;;;;;;8.77;3.47;;;;;;;;;;6207686;23;20020;-58
2023/07/01 10:13:38;;;;;;;4.78;2.45;;;;;;;;;;6206189;23;20028;-58
2023/07/01 10:16:31;;;;;;;6.13;3.08;;;;;;;;;;6207621;23;20469;-58
2023/07/01 10:19:32;;;;;;;8.45;3.35;;;;;;;;;;6203447;23;20091;-56
2023/07/01 10:22:31;;;;;;;7.00;3.08;;;;;;;;;;6206386;23;20027;-59
2023/07/01 10:25:28;;;;;;;6.25;3.15;;;;;;;;;;6204970;23;20800;-59
2023/07/01 10:28:27;;;;;;;8.23;3.60;;;;;;;;;;6206262;23;20021;-58
2023/07/01 10:31:14;;;;;;;6.97;3.13;;;;;;;;;;6206110;23;20033;-58
2023/07/01 10:34:09;;;;;;;6.07;3.45;;;;;;;;;;6204133;23;20456;-59
2023/07/01 10:37:11;;;;;;;6.63;3.00;;;;;;;;;;6206039;23;20095;-58
2023/07/01 10:40:24;;;;;;;4.95;2.97;;;;;;;;;;6205488;23;20017;-58
2023/07/01 10:43:24;;;;;;;6.25;2.92;;;;;;;;;;6200716;23;20473;-59
2023/07/01 10:46:24;;;;;;;6.53;2.90;;;;;;;;;;6207488;23;20465;-59
2023/07/01 10:49:11;;;;;;;9.95;2.80;;;;;;;;;;6206700;23;20021;-59
2023/07/01 10:52:05;;;;;;;5.90;2.80;;;;;;;;;;6207827;23;20473;-59
2023/07/01 10:54:53;;;;;;;8.95;3.47;;;;;;;;;;6205905;23;20024;-58
2023/07/01 10:58:07;;;;;;;10.45;3.30;;;;;;;;;;6205746;23;20035;-58
2023/07/01 11:01:00;;;;;;;7.53;3.28;;;;;;;;;;6207962;23;20017;-59
2023/07/01 11:03:47;;;;;;;9.25;3.38;;;;;;;;;;6206385;23;20417;-58
2023/07/01 11:06:52;;;;;;;7.20;2.97;;;;;;;;;;6209118;23;20024;-58
2023/07/01 11:09:39;;;;;;;6.68;3.03;;;;;;;;;;6206512;23;20048;-59
2023/07/01 11:12:39;;;;;;;7.28;2.80;;;;;;;;;;6206048;23;20025;-59
2023/07/01 11:15:26;;;;;;;8.88;3.13;;;;;;;;;;6207891;23;20879;-59
2023/07/01 11:18:20;;;;;;;5.20;2.35;;;;;;;;;;6205389;23;20021;-58
2023/07/01 11:21:18;;;;;;;5.28;2.88;;;;;;;;;;6204693;23;20035;-58
2023/07/01 11:24:11;;;;;;;16.67;3.10;;;;;;;;;;6205958;23;20405;-59
2023/07/01 11:27:03;;;;;;;4.00;2.70;;;;;;;;;;6206188;23;20736;-58
2023/07/01 11:29:56;;;;;;;8.05;2.75;;;;;;;;;;6206438;23;20021;-58
2023/07/01 11:32:44;;;;;;;7.60;2.70;;;;;;;;;;6204503;23;20020;-58
2023/07/01 11:35:51;;;;;;;4.93;2.67;;;;;;;;;;6206633;23;20623;-58
2023/07/01 11:38:38;;;;;;;6.32;2.60;;;;;;;;;;6206986;23;20074;-58
2023/07/01 11:41:33;;;;;;;6.57;2.78;;;;;;;;;;6206582;23;20021;-58
2023/07/01 11:44:08;;;;;;;8.57;2.88;;;;;;;;;;6203652;23;20021;-58
2023/07/01 11:47:02;;;;;;;10.93;2.97;;;;;;;;;;6208313;23;20021;-57
2023/07/01 11:49:50;;;;;;;5.35;2.42;;;;;;;;;;6206559;23;20331;-58
2023/07/01 11:52:44;;;;;;;4.93;2.63;;;;;;;;;;6207552;23;20028;-58
2023/07/01 11:55:35;;;;;;;5.97;2.60;;;;;;;;;;6207787;23;20029;-58
2023/07/01 11:58:33;;;;;;;3.30;1.75;;;;;;;;;;6207451;23;20021;-58
2023/07/01 12:01:28;;;;;;;3.17;1.93;;;;;;;;;;6208149;23;20678;-58
2023/07/01 12:04:23;;;;;;;6.78;1.90;;;;;;;;;;6205880;23;20260;-56
2023/07/01 12:07:12;;;;;;;3.60;1.65;;;;;;;;;;6207652;23;20052;-57
2023/07/01 12:09:45;;;;;;;4.78;1.90;;;;;;;;;;6206934;23;20025;-58
2023/07/01 12:12:46;;;;;;;4.60;1.70;;;;;;;;;;6208993;23;20020;-58
2023/07/01 12:15:33;;;;;;;2.85;1.83;;;;;;;;;;6207510;23;20030;-58
2023/07/01 12:18:29;;;;;;;5.25;2.20;;;;;;;;;;6204836;23;20405;-58
2023/07/01 12:21:14;;;;;;;3.17;2.00;;;;;;;;;;6206483;23;20075;-58
2023/07/01 12:24:24;;;;;;;6.07;2.25;;;;;;;;;;6206485;23;20020;-57
2023/07/01 12:27:18;;;;;;;4.32;2.05;;;;;;;;;;6206854;23;20075;-59
2023/07/01 12:30:07;;;;;;;4.93;2.50;;;;;;;;;;6207543;23;20029;-58
2023/07/01 12:32:59;;;;;;;4.10;2.30;;;;;;;;;;6207620;23;20198;-57
2023/07/01 12:35:47;;;;;;;3.33;1.95;;;;;;;;;;6207401;23;20024;-57
2023/07/01 12:38:41;;;;;;;5.53;1.80;;;;;;;;;;6206149;23;20335;-58
2023/07/01 12:41:29;;;;;;;4.72;1.80;;;;;;;;;;6206827;23;20025;-56
2023/07/01 12:44:22;;;;;;;3.58;2.30;;;;;;;;;;6206689;23;20032;-56
2023/07/01 12:47:09;;;;;;;13.00;2.97;;;;;;;;;;6207106;23;20024;-57
2023/07/01 12:50:05;;;;;;;6.05;2.40;;;;;;;;;;6204536;23;20043;-57
2023/07/01 12:52:53;;;;;;;4.68;1.98;;;;;;;;;;6184908;23;20024;-57
2023/07/01 12:55:49;;;;;;;4.50;1.80;;;;;;;;;;6209000;23;20388;-56
2023/07/01 12:58:41;;;;;;;4.32;2.08;;;;;;;;;;6208243;23;20067;-56
2023/07/01 13:01:35;;;;;;;7.38;2.17;;;;;;;;;;6206678;23;20099;-57
2023/07/01 13:04:23;;;;;;;5.18;2.30;;;;;;;;;;6206956;23;20016;-57
2023/07/01 13:07:17;;;;;;;7.13;2.15;;;;;;;;;;6207027;23;20465;-57
2023/07/01 13:10:04;;;;;;;4.75;2.20;;;;;;;;;;6206143;23;20553;-56
2023/07/01 13:13:05;;;;;;;4.05;2.17;;;;;;;;;;6208518;23;20025;-56
2023/07/01 13:15:58;;;;;;;5.55;2.38;;;;;;;;;;6207543;23;20028;-59
2023/07/01 13:18:45;;;;;;;4.88;2.17;;;;;;;;;;6206906;23;20024;-59
2023/07/01 13:21:44;;;;;;;3.08;1.98;;;;;;;;;;6208257;23;20030;-59
2023/07/01 13:24:39;;;;;;;4.43;2.53;;;;;;;;;;6206047;23;20030;-59
2023/07/01 13:27:26;;;;;;;4.13;2.22;;;;;;;;;;6207073;23;20024;-59
2023/07/01 13:30:31;;;;;;;5.93;2.38;;;;;;;;;;6206907;23;20028;-59
2023/07/01 13:33:25;;;;;;;3.25;2.38;;;;;;;;;;6205491;23;20095;-58
2023/07/01 13:36:19;;;;;;;4.15;2.50;;;;;;;;;;6204103;23;20118;-58
2023/07/01 13:38:50;;;;;;;9.00;2.67;;;;;;;;;;6205622;23;20028;-59
2023/07/01 13:41:23;;;;;;;4.68;2.28;;;;;;;;;;6206924;23;20090;-58
2023/07/01 13:44:00;;;;;;;9.43;2.42;;;;;;;;;;6205841;23;20086;-58
2023/07/01 13:46:36;;;;;;;6.30;2.45;;;;;;;;;;6205494;23;20586;-58
2023/07/01 13:49:11;;;;;;;5.03;2.42;;;;;;;;;;6206254;23;20024;-59
2023/07/01 13:51:39;;;;;;;5.45;2.40;;;;;;;;;;6207667;23;20028;-59
2023/07/01 13:54:16;;;;;;;4.95;2.60;;;;;;;;;;6204544;23;20032;-59
2023/07/01 13:56:44;;;;;;;5.85;2.78;;;;;;;;;;6205934;23;20024;-58
2023/07/01 13:59:18;;;;;;;5.70;3.00;;;;;;;;;;6206579;23;20025;-58
2023/07/01 14:01:54;;;;;;;3.78;2.25;;;;;;;;;;6206752;23;20016;-58
2023/07/01 14:04:31;;;;;;;4.35;2.70;;;;;;;;;;6205967;23;20527;-57
2023/07/01 14:07:17;;;;;;;5.22;2.63;;;;;;;;;;6205534;23;20025;-59
2023/07/01 14:10:23;;;;;;;3.65;2.20;;;;;;;;;;6205117;23;20082;-58
2023/07/01 14:13:16;;;;;;;;;;;;;;;;;;6206473;23;20024;-58
2023/07/01 14:16:10;;;;;;;2.85;2.00;;;;;;;;;;6204336;23;19982;-58
2023/07/01 14:19:04;;;;;;;3.08;2.17;;;;;;;;;;6205341;23;20020;-58
2023/07/01 14:21:53;;;;;;;4.45;2.00;;;;;;;;;;6207537;23;20016;-59
2023/07/01 14:24:47;;;;;;;3.80;1.90;;;;;;;;;;6204056;23;20047;-58
2023/07/01 14:27:33;;;;;;;3.72;2.20;;;;;;;;;;6205945;23;20331;-58
2023/07/01 14:30:41;;;;;;;4.47;1.80;;;;;;;;;;6205354;23;20021;-58
2023/07/01 14:33:34;;;;;;;6.63;1.88;;;;;;;;;;6200529;23;20393;-58
2023/07/01 14:36:30;;;;;;;8.05;2.40;;;;;;;;;;6194027;23;20131;-58
2023/07/01 14:39:37;;;;;;;3.87;2.30;;;;;;;;;;6201331;23;20087;-58
2023/07/01 14:42:32;;;;;;;7.55;2.35;;;;;;;;;;6205223;23;20752;-58
2023/07/01 14:45:17;;;;;;;4.47;2.47;;;;;;;;;;6204956;23;20087;-57
2023/07/01 14:48:12;;;;;;;4.85;2.35;;;;;;;;;;6203815;23;20021;-58
2023/07/01 14:50:59;;;;;;;3.53;2.22;;;;;;;;;;6206684;23;20114;-58
2023/07/01 14:53:53;;;;;;;7.85;2.72;;;;;;;;;;6206155;23;20032;-58
2023/07/01 14:56:41;;;;;;;6.32;2.70;;;;;;;;;;6207148;23;20016;-58
2023/07/01 14:59:34;;;;;;;5.00;2.60;;;;;;;;;;6205668;23;20028;-59
2023/07/01 15:02:36;;;;;;;5.50;2.78;;;;;;;;;;6205085;23;20135;-59
2023/07/01 15:05:36;;;;;;;4.38;2.47;;;;;;;;;;6205254;23;20025;-59
2023/07/01 15:08:23;;;;;;;5.57;2.90;;;;;;;;;;6203823;23;20079;-59
2023/07/01 15:11:18;;;;;;;3.63;2.58;;;;;;;;;;6207587;23;20028;-60
2023/07/01 15:14:18;;;;;;;9.02;2.80;;;;;;;;;;6205942;23;20410;-59
2023/07/01 15:17:05;;;;;;;4.78;2.63;;;;;;;;;;6207624;23;20028;-60
2023/07/01 15:19:59;;;;;;;7.82;2.85;;;;;;;;;;6207801;23;20099;-60
2023/07/01 15:22:50;;;;;;;4.22;2.78;;;;;;;;;;6206735;23;20028;-60
2023/07/01 15:25:43;;;;;;;5.00;3.08;;;;;;;;;;6207687;23;20070;-60
2023/07/01 15:28:30;;;;;;;5.95;3.03;;;;;;;;;;6208237;23;20029;-60
2023/07/01 15:31:24;;;;;;;3.40;2.70;;;;;;;;;;6207099;23;20029;-60
2023/07/01 15:34:12;;;;;;;3.88;2.55;;;;;;;;;;6206859;23;20055;-60
2023/07/01 15:37:05;;;;;;;3.60;2.58;;;;;;;;;;6208558;23;20409;-61
2023/07/01 15:39:55;;;;;;;4.55;2.78;;;;;;;;;;6206141;23;20024;-60
2023/07/01 15:42:50;;;;;;;6.20;3.05;;;;;;;;;;6208457;23;20064;-61
2023/07/01 15:45:36;;;;;;;5.78;3.10;;;;;;;;;;6207738;23;20032;-61
2023/07/01 15:48:31;;;;;;;4.32;2.92;;;;;;;;;;6206217;23;20028;-60
2023/07/01 15:51:18;;;;;;;5.80;3.08;;;;;;;;;;6207492;23;20082;-60
2023/07/01 15:54:12;;;;;;;6.57;3.00;;;;;;;;;;6206298;23;20024;-60
2023/07/01 15:56:58;;;;;;;5.90;2.95;;;;;;;;;;6208083;23;20083;-60
2023/07/01 15:59:52;;;;;;;4.20;3.50;;;;;;;;;;6206070;23;20020;-60
2023/07/01 16:02:46;;;;;;;3.72;2.92;;;;;;;;;;6206889;23;20078;-61
2023/07/01 16:05:34;;;;;;;8.77;3.65;;;;;;;;;;6205609;23;20469;-60
2023/07/01 16:08:30;;;;;;;3.70;3.30;;;;;;;;;;6207453;23;20067;-60
2023/07/01 16:11:36;;;;;;;5.97;3.40;;;;;;;;;;6208656;23;20078;-60
2023/07/01 16:14:30;;;;;;;5.97;3.38;;;;;;;;;;6207025;23;20074;-59
2023/07/01 16:17:24;;;;;;;6.30;3.38;;;;;;;;;;6208360;23;20070;-60
2023/07/01 16:20:30;;;;;;;5.90;3.58;;;;;;;;;;6205178;23;20024;-60
2023/07/01 16:23:24;;;;;;;4.47;3.30;;;;;;;;;;6207631;23;20595;-59
2023/07/01 16:26:13;;;;;;;6.75;3.55;;;;;;;;;;6208440;23;20048;-60
2023/07/01 16:29:07;;;;;;;4.70;3.45;;;;;;;;;;6204605;23;20024;-59
2023/07/01 16:31:55;;;;;;;4.00;3.60;;;;;;;;;;6205989;23;20051;-60
2023/07/01 16:34:48;;;;;;;5.22;3.55;;;;;;;;;;6207617;23;20028;-59
2023/07/01 16:37:35;;;;;;;6.28;3.88;;;;;;;;;;6208301;23;20071;-60
2023/07/01 16:40:39;;;;;;;5.45;3.47;;;;;;;;;;6206580;23;20074;-60
2023/07/01 16:43:46;;;;;;;5.20;3.60;;;;;;;;;;6208379;23;20032;-60
2023/07/01 16:46:39;;;;;;;4.85;4.30;;;;;;;;;;6207296;23;20052;-61
2023/07/01 16:49:26;;;;;;;4.30;3.45;;;;;;;;;;6203535;23;20028;-60
2023/07/01 16:52:25;;;;;;;4.45;3.90;;;;;;;;;;6206137;23;20031;-60